createdAt,value
2023-03-21T00:00:56.541Z,88.20
2023-03-21T00:01:56.522Z,88.62
2023-03-21T00:02:56.629Z,88.86
2023-03-21T00:03:56.635Z,88.96
2023-03-21T00:04:58.501Z,89.28
2023-03-21T00:05:56.711Z,89.17
2023-03-21T00:06:56.695Z,89.48
2023-03-21T00:07:56.770Z,89.38
2023-03-21T00:08:56.868Z,89.17
2023-03-21T00:10:04.884Z,89.13
2023-03-21T00:10:57.033Z,89.07
2023-03-21T00:11:57.011Z,89.13
2023-03-21T00:12:57.072Z,89.03
2023-03-21T00:13:57.175Z,88.96
2023-03-21T00:14:57.220Z,89.48
2023-03-21T00:16:04.741Z,89.07
2023-03-21T00:16:57.270Z,88.86
2023-03-21T00:17:57.341Z,88.86
2023-03-21T00:18:57.427Z,88.86
2023-03-21T00:19:57.493Z,89.07
2023-03-21T00:21:15.793Z,88.90
2023-03-21T00:22:07.376Z,88.80
2023-03-21T00:22:57.719Z,88.56
2023-03-21T00:23:57.790Z,88.39
2023-03-21T00:24:57.861Z,88.90
2023-03-21T00:25:57.932Z,89.11
2023-03-21T00:27:15.897Z,88.70
2023-03-21T00:28:08.022Z,88.80
2023-03-21T00:28:58.071Z,88.80
2023-03-21T00:29:58.026Z,88.49
2023-03-21T00:30:58.109Z,88.18
2023-03-21T00:31:58.228Z,88.18
2023-03-21T00:33:01.528Z,88.35
2023-03-21T00:33:58.296Z,88.35
2023-03-21T00:35:16.568Z,88.35
2023-03-21T00:36:05.005Z,88.04
2023-03-21T00:36:58.428Z,88.14
2023-03-21T00:37:58.406Z,88.49
2023-03-21T00:38:58.470Z,88.70
2023-03-21T00:39:58.602Z,88.59
2023-03-21T00:41:04.753Z,89.11
2023-03-21T00:41:58.679Z,88.90
2023-03-21T00:42:58.661Z,89.36
2023-03-21T00:43:58.766Z,89.15
2023-03-21T00:44:58.731Z,89.46
2023-03-21T00:45:58.819Z,89.36
2023-03-21T00:47:06.985Z,89.05
2023-03-21T00:47:58.991Z,89.25
2023-03-21T00:48:58.906Z,89.46
2023-03-21T00:49:58.969Z,89.46
2023-03-21T00:50:59.079Z,89.05
2023-03-21T00:52:08.698Z,89.15
2023-03-21T00:52:59.110Z,89.56
2023-03-21T00:54:00.181Z,89.46
2023-03-21T00:54:59.210Z,89.77
2023-03-21T00:55:59.299Z,89.87
2023-03-21T00:56:59.290Z,89.87
2023-03-21T00:58:02.083Z,89.77
2023-03-21T00:58:59.248Z,90.19
2023-03-21T00:59:59.332Z,90.43
2023-03-21T01:00:59.481Z,90.43
2023-03-21T01:01:59.535Z,90.74
2023-03-21T01:03:08.597Z,90.74
2023-03-21T01:03:59.600Z,90.19
2023-03-21T01:04:59.662Z,89.67
2023-03-21T01:05:59.730Z,89.67
2023-03-21T01:06:59.842Z,90.08
2023-03-21T01:07:59.844Z,90.28
2023-03-21T01:08:59.933Z,90.19
2023-03-21T01:09:59.988Z,89.67
2023-03-21T01:11:00.112Z,89.22
2023-03-21T01:12:00.163Z,89.32
2023-03-21T01:13:01.126Z,89.11
2023-03-21T01:14:14.722Z,89.22
2023-03-21T01:15:00.218Z,89.22
2023-03-21T01:16:00.352Z,89.52
2023-03-21T01:17:00.371Z,89.11
2023-03-21T01:18:00.449Z,88.96
2023-03-21T01:19:01.152Z,88.90
2023-03-21T01:20:00.541Z,89.22
2023-03-21T01:21:00.627Z,89.52
2023-03-21T01:22:00.727Z,90.04
2023-03-21T01:23:00.687Z,90.04
2023-03-21T01:24:00.768Z,90.28
2023-03-21T01:25:19.184Z,90.49
2023-03-21T01:26:00.950Z,90.49
2023-03-21T01:27:00.950Z,90.39
2023-03-21T01:28:00.917Z,90.19
2023-03-21T01:29:00.989Z,90.66
2023-03-21T01:30:01.081Z,90.59
2023-03-21T01:31:01.168Z,90.49
2023-03-21T01:32:01.247Z,90.14
2023-03-21T01:33:01.321Z,89.94
2023-03-21T01:34:01.350Z,89.73
2023-03-21T01:35:01.450Z,89.77
2023-03-21T01:36:12.123Z,89.87
2023-03-21T01:37:01.532Z,89.98
2023-03-21T01:38:01.543Z,90.08
2023-03-21T01:39:01.521Z,89.87
2023-03-21T01:40:01.576Z,90.08
2023-03-21T01:41:06.127Z,90.19
2023-03-21T01:42:01.743Z,90.39
2023-03-21T01:43:01.714Z,90.59
2023-03-21T01:44:01.791Z,90.49
2023-03-21T01:45:01.873Z,90.70
2023-03-21T01:46:01.997Z,91.32
2023-03-21T01:47:17.445Z,91.22
2023-03-21T01:48:02.033Z,91.22
2023-03-21T01:49:02.045Z,91.01
2023-03-21T01:50:02.106Z,91.42
2023-03-21T01:51:02.203Z,91.46
2023-03-21T01:52:11.460Z,91.46
2023-03-21T01:53:02.216Z,91.77
2023-03-21T01:54:02.188Z,91.77
2023-03-21T01:55:02.257Z,91.67
2023-03-21T01:56:02.346Z,91.46
2023-03-21T01:57:02.443Z,91.56
2023-03-21T01:58:06.498Z,91.67
2023-03-21T01:59:02.406Z,91.67
2023-03-21T02:00:02.509Z,92.19
2023-03-21T02:01:02.515Z,91.98
2023-03-21T02:02:02.531Z,91.56
2023-03-21T02:03:11.707Z,91.11
2023-03-21T02:04:02.608Z,90.80
2023-03-21T02:05:02.764Z,90.39
2023-03-21T02:06:02.660Z,90.39
2023-03-21T02:07:02.726Z,90.19
2023-03-21T02:08:02.743Z,90.25
2023-03-21T02:09:02.811Z,90.04
2023-03-21T02:10:02.876Z,89.87
2023-03-21T02:11:02.970Z,89.98
2023-03-21T02:12:03.027Z,89.73
2023-03-21T02:13:03.106Z,89.42
2023-03-21T02:14:06.620Z,89.42
2023-03-21T02:15:03.118Z,89.07
2023-03-21T02:16:03.207Z,89.11
2023-03-21T02:17:03.275Z,89.22
2023-03-21T02:18:03.384Z,89.62
2023-03-21T02:19:03.347Z,89.62
2023-03-21T02:20:03.440Z,89.73
2023-03-21T02:21:03.416Z,89.94
2023-03-21T02:22:03.514Z,90.04
2023-03-21T02:23:03.516Z,89.38
2023-03-21T02:24:04.506Z,88.96
2023-03-21T02:25:08.305Z,88.76
2023-03-21T02:26:03.656Z,88.76
2023-03-21T02:27:04.694Z,88.41
2023-03-21T02:28:03.738Z,88.10
2023-03-21T02:29:03.715Z,88.31
2023-03-21T02:30:03.810Z,88.51
2023-03-21T02:31:03.929Z,88.41
2023-03-21T02:32:16.477Z,87.99
2023-03-21T02:33:04.016Z,88.20
2023-03-21T02:34:03.988Z,88.72
2023-03-21T02:35:04.039Z,88.92
2023-03-21T02:36:13.534Z,88.82
2023-03-21T02:37:04.187Z,88.62
2023-03-21T02:38:04.308Z,88.31
2023-03-21T02:39:04.270Z,88.41
2023-03-21T02:40:04.362Z,88.41
2023-03-21T02:41:10.087Z,88.51
2023-03-21T02:42:04.407Z,89.23
2023-03-21T02:43:07.210Z,89.03
2023-03-21T02:44:04.408Z,88.82
2023-03-21T02:45:04.487Z,88.62
2023-03-21T02:46:04.639Z,88.20
2023-03-21T02:47:06.230Z,87.90
2023-03-21T02:48:04.771Z,88.41
2023-03-21T02:49:04.800Z,88.10
2023-03-21T02:50:04.694Z,88.51
2023-03-21T02:51:04.775Z,88.31
2023-03-21T02:52:15.340Z,88.20
2023-03-21T02:53:04.958Z,88.31
2023-03-21T02:54:27.843Z,88.65
2023-03-21T02:55:05.048Z,88.96
2023-03-21T02:56:05.029Z,89.48
2023-03-21T02:57:05.129Z,89.79
2023-03-21T02:58:12.798Z,89.94
2023-03-21T02:59:05.169Z,90.45
2023-03-21T03:00:15.781Z,90.45
2023-03-21T03:01:05.358Z,90.86
2023-03-21T03:02:05.349Z,90.66
2023-03-21T03:03:09.943Z,90.86
2023-03-21T03:04:05.522Z,91.28
2023-03-21T03:05:14.763Z,91.32
2023-03-21T03:06:05.582Z,91.73
2023-03-21T03:07:05.650Z,91.83
2023-03-21T03:08:05.722Z,91.38
2023-03-21T03:09:05.808Z,91.28
2023-03-21T03:10:05.893Z,90.86
2023-03-21T03:11:06.971Z,91.17
2023-03-21T03:12:05.998Z,91.42
2023-03-21T03:13:06.074Z,91.42
2023-03-21T03:14:25.159Z,91.83
2023-03-21T03:15:06.142Z,91.63
2023-03-21T03:16:06.272Z,91.73
2023-03-21T03:17:06.261Z,91.63
2023-03-21T03:18:06.341Z,91.42
2023-03-21T03:19:06.465Z,91.63
2023-03-21T03:20:15.500Z,91.63
2023-03-21T03:21:06.522Z,91.42
2023-03-21T03:22:06.523Z,91.01
2023-03-21T03:23:06.589Z,90.66
2023-03-21T03:24:06.683Z,90.35
2023-03-21T03:25:18.614Z,90.45
2023-03-21T03:26:06.726Z,90.35
2023-03-21T03:27:06.815Z,90.45
2023-03-21T03:28:06.883Z,89.69
2023-03-21T03:29:07.007Z,89.28
2023-03-21T03:30:06.969Z,88.76
2023-03-21T03:31:09.601Z,88.86
2023-03-21T03:32:07.171Z,88.76
2023-03-21T03:33:07.168Z,88.65
2023-03-21T03:34:07.318Z,88.96
2023-03-21T03:35:07.282Z,89.17
2023-03-21T03:36:09.234Z,89.48
2023-03-21T03:37:07.378Z,89.17
2023-03-21T03:38:07.356Z,89.17
2023-03-21T03:39:07.470Z,88.76
2023-03-21T03:40:07.448Z,89.07
2023-03-21T03:41:07.536Z,89.79
2023-03-21T03:42:21.647Z,90.14
2023-03-21T03:43:07.579Z,90.45
2023-03-21T03:44:07.658Z,90.97
2023-03-21T03:45:07.752Z,90.86
2023-03-21T03:46:07.872Z,90.76
2023-03-21T03:47:07.881Z,90.97
2023-03-21T03:48:08.011Z,90.66
2023-03-21T03:49:07.895Z,90.55
2023-03-21T03:50:07.988Z,91.17
2023-03-21T03:51:08.061Z,91.07
2023-03-21T03:52:08.161Z,91.17
2023-03-21T03:53:17.734Z,91.07
2023-03-21T03:54:08.176Z,90.97
2023-03-21T03:55:08.287Z,90.66
2023-03-21T03:56:08.255Z,90.45
2023-03-21T03:57:08.328Z,90.31
2023-03-21T03:58:21.175Z,90.10
2023-03-21T03:59:08.454Z,89.38
2023-03-21T04:00:08.556Z,89.58
2023-03-21T04:01:08.543Z,90.25
2023-03-21T04:02:08.684Z,90.45
2023-03-21T04:03:08.840Z,90.25
2023-03-21T04:04:13.232Z,89.89
2023-03-21T04:05:08.823Z,89.89
2023-03-21T04:06:08.898Z,90.14
2023-03-21T04:07:08.973Z,90.86
2023-03-21T04:08:09.072Z,90.86
2023-03-21T04:09:19.337Z,90.97
2023-03-21T04:10:09.229Z,91.07
2023-03-21T04:11:09.204Z,91.28
2023-03-21T04:12:09.261Z,91.38
2023-03-21T04:13:09.360Z,91.52
2023-03-21T04:14:09.328Z,91.63
2023-03-21T04:15:10.986Z,91.94
2023-03-21T04:16:09.499Z,92.04
2023-03-21T04:17:09.493Z,91.88
2023-03-21T04:18:09.552Z,91.83
2023-03-21T04:19:10.657Z,91.73
2023-03-21T04:20:13.968Z,91.07
2023-03-21T04:21:09.695Z,91.38
2023-03-21T04:22:09.788Z,91.17
2023-03-21T04:23:09.853Z,91.22
2023-03-21T04:24:09.953Z,91.01
2023-03-21T04:25:09.981Z,91.01
2023-03-21T04:26:09.966Z,91.32
2023-03-21T04:27:10.034Z,91.32
2023-03-21T04:28:10.113Z,91.22
2023-03-21T04:29:10.205Z,91.22
2023-03-21T04:30:10.348Z,90.91
2023-03-21T04:31:22.685Z,90.80
2023-03-21T04:32:10.427Z,90.76
2023-03-21T04:33:10.404Z,90.76
2023-03-21T04:34:10.481Z,91.11
2023-03-21T04:35:10.584Z,90.80
2023-03-21T04:36:10.590Z,91.28
2023-03-21T04:37:10.671Z,90.76
2023-03-21T04:38:10.740Z,91.01
2023-03-21T04:39:10.858Z,91.32
2023-03-21T04:40:10.862Z,91.01
2023-03-21T04:41:10.890Z,91.01
2023-03-21T04:42:10.963Z,91.11
2023-03-21T04:43:10.968Z,90.76
2023-03-21T04:44:11.037Z,90.76
2023-03-21T04:45:11.150Z,90.35
2023-03-21T04:46:11.133Z,90.45
2023-03-21T04:47:11.122Z,90.70
2023-03-21T04:48:11.276Z,90.66
2023-03-21T04:49:11.211Z,90.45
2023-03-21T04:50:11.183Z,90.20
2023-03-21T04:51:11.279Z,90.04
2023-03-21T04:52:11.249Z,90.14
2023-03-21T04:53:11.340Z,90.25
2023-03-21T09:52:48.411Z,55.78
2023-03-21T09:53:48.457Z,54.97
2023-03-21T09:54:48.507Z,54.13
2023-03-21T09:55:48.536Z,54.13
2023-03-21T09:56:48.570Z,53.02
2023-03-21T09:57:48.614Z,53.42
2023-03-21T09:58:48.639Z,52.18
2023-03-21T09:59:48.670Z,51.60
2023-03-21T10:00:48.746Z,52.41
2023-03-21T10:01:48.809Z,52.56
2023-03-21T10:02:48.821Z,54.31
2023-03-21T10:03:48.861Z,55.32
2023-03-21T10:04:49.146Z,56.34
2023-03-21T10:05:50.092Z,53.37
2023-03-21T10:06:48.992Z,51.87
2023-03-21T10:07:49.051Z,53.39
2023-03-21T10:08:49.081Z,52.99
2023-03-21T10:09:49.172Z,52.86
2023-03-21T10:10:49.211Z,51.32
2023-03-21T10:11:49.278Z,50.45
2023-03-21T10:12:49.333Z,51.87
2023-03-21T10:13:49.413Z,52.18
2023-03-21T10:14:49.453Z,51.06
2023-03-21T10:15:49.484Z,51.16
2023-03-21T10:16:49.624Z,51.42
2023-03-21T10:17:49.594Z,50.71
2023-03-21T10:18:49.624Z,50.10
2023-03-21T10:19:49.878Z,50.26
2023-03-21T10:20:49.696Z,50.05
2023-03-21T10:22:01.310Z,49.95
2023-03-21T10:22:49.769Z,49.95
2023-03-21T10:23:49.800Z,49.44
2023-03-21T10:24:49.850Z,49.77
2023-03-21T10:25:49.934Z,50.00
2023-03-21T10:26:49.889Z,49.41
2023-03-21T10:27:49.929Z,49.69
2023-03-21T10:28:53.097Z,49.69
2023-03-21T10:29:49.988Z,49.19
2023-03-21T10:30:50.020Z,50.79
2023-03-21T10:31:50.178Z,47.97
2023-03-21T10:32:50.150Z,49.49
2023-03-21T10:33:50.171Z,48.55
2023-03-21T10:34:50.219Z,49.16
2023-03-21T10:35:50.321Z,48.83
2023-03-21T10:36:50.384Z,48.71
2023-03-21T10:37:50.362Z,48.63
2023-03-21T10:38:50.392Z,50.68
2023-03-21T10:39:50.408Z,52.33
2023-03-21T10:40:50.421Z,52.03
2023-03-21T10:41:50.453Z,53.06
2023-03-21T10:42:50.465Z,49.82
2023-03-21T10:43:50.490Z,49.29
2023-03-21T10:44:50.493Z,49.87
2023-03-21T10:45:50.641Z,49.87
2023-03-21T10:46:50.777Z,50.05
2023-03-21T10:47:50.898Z,51.35
2023-03-21T10:48:50.926Z,50.59
2023-03-21T10:50:06.890Z,50.29
2023-03-21T10:50:50.849Z,49.35
2023-03-21T10:51:50.883Z,50.09
2023-03-21T10:52:50.930Z,49.27
2023-03-21T10:53:50.962Z,48.61
2023-03-21T10:54:50.984Z,48.31
2023-03-21T10:55:50.994Z,49.04
2023-03-21T10:56:51.002Z,51.27
2023-03-21T10:57:51.032Z,50.41
2023-03-21T10:58:51.044Z,48.87
2023-03-21T10:59:51.053Z,47.66
2023-03-21T11:00:51.084Z,46.95
2023-03-21T11:01:51.074Z,46.83
2023-03-21T11:02:51.134Z,46.92
2023-03-21T11:03:51.106Z,47.43
2023-03-21T11:04:51.117Z,47.94
2023-03-21T11:05:51.127Z,48.93
2023-03-21T11:06:51.156Z,48.24
2023-03-21T11:07:51.182Z,47.45
2023-03-21T11:08:51.189Z,47.17
2023-03-21T11:09:53.637Z,47.80
2023-03-21T11:10:51.247Z,47.98
2023-03-21T11:11:51.267Z,47.78
2023-03-21T11:12:51.316Z,48.87
2023-03-21T11:13:51.349Z,49.63
2023-03-21T11:14:51.361Z,47.59
2023-03-21T11:15:51.379Z,46.30
2023-03-21T11:16:51.465Z,47.41
2023-03-21T11:17:51.450Z,47.33
2023-03-21T11:18:51.465Z,46.54
2023-03-21T11:19:51.481Z,47.45
2023-03-21T11:20:51.502Z,46.75
2023-03-21T11:21:51.545Z,46.64
2023-03-21T11:22:51.544Z,47.20
2023-03-21T11:23:51.589Z,47.39
2023-03-21T11:24:51.602Z,45.22
2023-03-21T11:25:51.626Z,44.31
2023-03-21T11:26:51.654Z,45.14
2023-03-21T11:27:51.677Z,45.75
2023-03-21T11:28:51.716Z,45.37
2023-03-21T11:29:51.735Z,47.16
2023-03-21T11:30:51.812Z,45.85
2023-03-21T11:31:51.757Z,47.56
2023-03-21T11:32:51.768Z,45.95
2023-03-21T11:33:51.819Z,44.58
2023-03-21T11:34:51.849Z,46.52
2023-03-21T11:35:51.904Z,46.52
2023-03-21T11:36:51.916Z,45.23
2023-03-21T11:37:51.929Z,46.54
2023-03-21T11:38:51.969Z,45.94
2023-03-21T11:39:51.978Z,46.46
2023-03-21T11:40:51.988Z,46.34
2023-03-21T11:41:52.029Z,45.10
2023-03-21T11:42:52.031Z,45.91
2023-03-21T11:43:52.040Z,47.53
2023-03-21T11:44:52.108Z,45.79
2023-03-21T11:45:52.141Z,45.99
2023-03-21T11:46:53.977Z,46.07
2023-03-21T11:47:52.206Z,45.29
2023-03-21T11:48:52.160Z,47.91
2023-03-21T11:49:58.394Z,46.88
2023-03-21T11:50:52.277Z,46.09
2023-03-21T11:51:52.291Z,46.64
2023-03-21T11:52:52.312Z,46.83
2023-03-21T11:53:52.345Z,45.81
2023-03-21T11:54:52.370Z,46.09
2023-03-21T11:55:52.379Z,46.07
2023-03-21T11:56:52.402Z,45.45
2023-03-21T11:57:52.438Z,45.57
2023-03-21T11:58:52.494Z,45.18
2023-03-21T11:59:52.558Z,46.80
2023-03-21T12:00:52.550Z,46.20
2023-03-21T12:01:52.551Z,46.60
2023-03-21T12:02:52.618Z,47.79
2023-03-21T12:03:54.653Z,46.30
2023-03-21T12:04:52.682Z,45.79
2023-03-21T12:05:52.692Z,46.52
2023-03-21T12:06:52.718Z,46.44
2023-03-21T12:07:52.737Z,47.45
2023-03-21T12:08:52.750Z,48.26
2023-03-21T12:09:52.827Z,49.66
2023-03-21T12:10:52.851Z,47.25
2023-03-21T12:11:52.893Z,48.16
2023-03-21T12:12:52.933Z,48.77
2023-03-21T12:13:52.973Z,47.88
2023-03-21T12:14:53.034Z,47.78
2023-03-21T12:15:55.365Z,46.64
2023-03-21T12:16:53.096Z,46.36
2023-03-21T12:17:53.116Z,47.25
2023-03-21T12:18:53.154Z,45.41
2023-03-21T12:19:53.223Z,44.82
2023-03-21T12:20:53.283Z,45.94
2023-03-21T12:21:54.807Z,44.01
2023-03-21T12:22:53.453Z,44.21
2023-03-21T12:23:53.380Z,44.52
2023-03-21T12:24:53.443Z,44.92
2023-03-21T12:25:53.470Z,43.30
2023-03-21T12:26:53.507Z,44.74
2023-03-21T12:27:53.573Z,46.28
2023-03-21T12:28:53.602Z,44.96
2023-03-21T12:29:53.633Z,46.08
2023-03-21T12:30:53.687Z,45.87
2023-03-21T12:31:53.839Z,46.51
2023-03-21T12:32:53.808Z,47.39
2023-03-21T12:33:53.855Z,45.57
2023-03-21T12:34:53.872Z,46.08
2023-03-21T12:35:53.975Z,46.10
2023-03-21T12:36:53.940Z,45.70
2023-03-21T12:37:55.530Z,45.27
2023-03-21T12:38:53.983Z,45.17
2023-03-21T12:39:54.047Z,44.76
2023-03-21T12:40:54.093Z,45.07
2023-03-21T12:41:54.134Z,44.84
2023-03-21T12:42:54.152Z,45.75
2023-03-21T12:43:55.421Z,45.55
2023-03-21T12:44:54.246Z,46.36
2023-03-21T12:45:54.292Z,46.10
2023-03-21T12:46:54.350Z,46.91
2023-03-21T12:47:54.408Z,47.62
2023-03-21T12:48:54.447Z,46.99
2023-03-21T12:49:55.381Z,46.36
2023-03-21T12:50:54.515Z,47.17
2023-03-21T12:51:54.582Z,45.75
2023-03-21T12:52:54.608Z,46.46
2023-03-21T12:53:54.644Z,47.50
2023-03-21T12:54:54.690Z,47.90
2023-03-21T12:55:54.722Z,48.71
2023-03-21T12:56:54.774Z,48.31
2023-03-21T12:57:57.857Z,49.14
2023-03-21T12:58:54.873Z,47.52
2023-03-21T12:59:54.955Z,46.91
2023-03-21T13:00:55.021Z,47.60
2023-03-21T13:01:55.025Z,46.99
2023-03-21T13:02:55.054Z,45.57
2023-03-21T13:03:55.128Z,46.59
2023-03-21T13:04:55.182Z,45.87
2023-03-21T13:05:55.226Z,46.28
2023-03-21T13:06:55.273Z,47.19
2023-03-21T13:07:55.311Z,47.19
2023-03-21T13:08:55.343Z,47.09
2023-03-21T13:09:55.385Z,47.70
2023-03-21T13:10:55.423Z,46.46
2023-03-21T13:11:55.482Z,46.26
2023-03-21T13:12:55.492Z,46.46
2023-03-21T13:13:55.547Z,45.35
2023-03-21T13:14:55.562Z,46.77
2023-03-21T13:15:55.660Z,48.00
2023-03-21T13:16:55.622Z,46.46
2023-03-21T13:17:55.655Z,45.75
2023-03-21T13:18:55.682Z,45.17
2023-03-21T13:19:55.778Z,44.66
2023-03-21T13:20:55.785Z,46.69
2023-03-21T13:21:55.845Z,46.59
2023-03-21T13:22:55.890Z,44.66
2023-03-21T13:23:55.934Z,44.74
2023-03-21T13:24:55.973Z,44.84
2023-03-21T13:25:56.013Z,44.52
2023-03-21T13:26:56.057Z,44.21
2023-03-21T13:27:56.104Z,43.71
2023-03-21T13:28:56.133Z,44.34
2023-03-21T13:29:56.208Z,44.54
2023-03-21T13:30:56.188Z,46.16
2023-03-21T13:31:57.546Z,44.21
2023-03-21T13:32:56.266Z,43.91
2023-03-21T13:33:56.314Z,45.65
2023-03-21T13:34:56.349Z,44.01
2023-03-21T13:35:56.467Z,44.95
2023-03-21T13:36:56.400Z,46.97
2023-03-21T13:37:56.428Z,46.18
2023-03-21T13:38:56.477Z,45.57
2023-03-21T13:39:56.535Z,46.38
2023-03-21T13:40:56.576Z,46.69
2023-03-21T13:41:56.611Z,47.09
2023-03-21T13:42:56.653Z,47.60
2023-03-21T13:43:56.703Z,46.97
2023-03-21T13:44:56.737Z,46.44
2023-03-21T13:45:56.867Z,46.34
2023-03-21T13:46:56.845Z,44.92
2023-03-21T13:47:56.927Z,45.03
2023-03-21T13:48:59.124Z,45.03
2023-03-21T13:49:56.963Z,44.82
2023-03-21T13:50:58.233Z,45.23
2023-03-21T13:51:57.083Z,45.51
2023-03-21T13:52:57.133Z,46.12
2023-03-21T13:53:57.184Z,46.92
2023-03-21T13:54:57.205Z,46.83
2023-03-21T13:55:57.244Z,46.64
2023-03-21T13:56:58.080Z,45.53
2023-03-21T13:57:57.406Z,44.72
2023-03-21T13:58:57.414Z,45.41
2023-03-21T13:59:57.469Z,45.31
2023-03-21T14:00:57.529Z,45.33
2023-03-21T14:01:57.568Z,45.83
2023-03-21T14:02:57.614Z,45.83
2023-03-21T14:03:57.672Z,45.33
2023-03-21T14:05:05.651Z,44.32
2023-03-21T14:05:57.742Z,44.82
2023-03-21T14:06:57.730Z,44.72
2023-03-21T14:08:06.008Z,44.66
2023-03-21T14:08:57.757Z,45.27
2023-03-21T14:09:57.805Z,45.57
2023-03-21T14:10:57.821Z,46.08
2023-03-21T14:12:03.866Z,46.26
2023-03-21T14:12:57.993Z,46.06
2023-03-21T14:13:57.933Z,45.63
2023-03-21T14:15:06.757Z,45.75
2023-03-21T14:15:58.361Z,45.55
2023-03-21T14:16:58.060Z,45.86
2023-03-21T14:17:58.103Z,45.73
2023-03-21T14:18:58.164Z,45.94
2023-03-21T14:19:58.179Z,45.94
2023-03-21T14:20:58.226Z,46.06
2023-03-21T14:21:58.304Z,45.86
2023-03-21T14:22:58.318Z,46.16
2023-03-21T14:23:58.362Z,46.36
2023-03-21T14:24:58.410Z,46.16
2023-03-21T14:25:58.445Z,46.16
2023-03-21T14:26:58.486Z,46.46
2023-03-21T14:27:58.529Z,46.77
2023-03-21T14:28:58.544Z,47.38
2023-03-21T14:29:58.578Z,47.19
2023-03-21T14:30:58.626Z,48.21
2023-03-21T14:31:58.709Z,48.82
2023-03-21T14:32:58.770Z,48.28
2023-03-21T14:33:58.817Z,48.18
2023-03-21T14:34:58.859Z,47.58
2023-03-21T14:35:58.908Z,47.47
2023-03-21T14:36:59.380Z,47.67
2023-03-21T14:37:58.949Z,47.25
2023-03-21T14:38:58.980Z,48.28
2023-03-21T14:40:00.472Z,48.69
2023-03-21T14:40:59.017Z,47.38
2023-03-21T14:41:59.038Z,47.98
2023-03-21T14:42:59.071Z,46.77
2023-03-21T14:43:59.101Z,45.55
2023-03-21T14:44:59.150Z,45.98
2023-03-21T14:45:59.204Z,46.28
2023-03-21T14:46:59.258Z,46.79
2023-03-21T14:47:59.361Z,46.46
2023-03-21T14:48:59.310Z,45.86
2023-03-21T14:49:59.352Z,45.94
2023-03-21T14:50:59.379Z,46.04
2023-03-21T14:51:59.428Z,46.36
2023-03-21T14:52:59.477Z,46.67
2023-03-21T14:53:59.501Z,46.77
2023-03-21T14:54:59.567Z,47.27
2023-03-21T14:55:59.618Z,47.67
2023-03-21T14:56:59.644Z,47.38
2023-03-21T14:57:59.681Z,47.67
2023-03-21T14:58:59.720Z,46.36
2023-03-21T14:59:59.780Z,45.43
2023-03-21T15:00:59.811Z,45.55
2023-03-21T15:01:59.915Z,46.24
2023-03-21T15:02:59.934Z,46.24
2023-03-21T15:04:00.575Z,46.75
2023-03-21T15:05:00.042Z,46.84
2023-03-21T15:06:00.125Z,46.46
2023-03-21T15:07:00.153Z,46.16
2023-03-21T15:08:00.205Z,46.67
2023-03-21T15:09:00.255Z,46.16
2023-03-21T15:10:00.272Z,46.56
2023-03-21T15:11:08.310Z,46.97
2023-03-21T15:12:00.333Z,47.78
2023-03-21T15:13:00.361Z,48.31
2023-03-21T15:14:00.415Z,50.03
2023-03-21T15:15:00.464Z,48.00
2023-03-21T15:16:00.533Z,47.47
2023-03-21T15:17:00.584Z,46.36
2023-03-21T15:18:00.622Z,45.65
2023-03-21T15:19:00.664Z,46.59
2023-03-21T15:20:00.720Z,46.89
2023-03-21T15:21:00.733Z,48.41
2023-03-21T15:22:00.772Z,48.61
2023-03-21T15:23:00.814Z,48.71
2023-03-21T15:24:00.852Z,46.46
2023-03-21T15:25:00.893Z,46.16
2023-03-21T15:26:00.934Z,46.26
2023-03-21T15:27:00.976Z,46.84
2023-03-21T15:28:01.019Z,46.64
2023-03-21T15:29:01.049Z,47.96
2023-03-21T15:30:01.073Z,47.86
2023-03-21T15:31:01.146Z,48.26
2023-03-21T15:32:01.114Z,47.96
2023-03-21T15:33:01.141Z,47.75
2023-03-21T15:34:01.170Z,47.53
2023-03-21T15:35:01.193Z,47.15
2023-03-21T15:36:01.330Z,47.05
2023-03-21T15:37:01.280Z,47.25
2023-03-21T15:38:01.305Z,47.15
2023-03-21T15:39:01.343Z,48.06
2023-03-21T15:40:01.380Z,48.87
2023-03-21T15:41:01.426Z,47.96
2023-03-21T15:42:01.469Z,47.35
2023-03-21T15:43:01.504Z,47.17
2023-03-21T15:44:01.572Z,47.17
2023-03-21T15:45:01.606Z,47.88
2023-03-21T15:46:01.660Z,47.27
2023-03-21T15:47:01.754Z,47.47
2023-03-21T15:48:01.771Z,48.26
2023-03-21T15:49:01.842Z,48.08
2023-03-21T15:50:01.893Z,49.17
2023-03-21T15:51:01.993Z,49.48
2023-03-21T15:52:01.922Z,48.87
2023-03-21T15:53:01.954Z,48.97
2023-03-21T15:54:01.996Z,48.77
2023-03-21T15:55:02.032Z,49.17
2023-03-21T15:56:02.092Z,48.97
2023-03-21T15:57:02.133Z,48.46
2023-03-21T15:58:02.162Z,48.57
2023-03-21T15:59:02.207Z,48.67
2023-03-21T16:00:02.234Z,49.17
2023-03-21T16:01:02.367Z,49.07
2023-03-21T16:02:02.391Z,48.46
2023-03-21T16:03:02.373Z,49.48
2023-03-21T16:04:02.416Z,48.59
2023-03-21T16:05:02.483Z,48.99
2023-03-21T16:06:02.493Z,48.39
2023-03-21T16:07:02.564Z,48.28
2023-03-21T16:08:02.594Z,48.18
2023-03-21T16:09:02.624Z,48.08
2023-03-21T16:10:02.653Z,48.08
2023-03-21T16:11:02.693Z,48.99
2023-03-21T16:12:02.745Z,47.27
2023-03-21T16:13:02.778Z,47.67
2023-03-21T16:14:02.807Z,48.18
2023-03-21T16:15:02.853Z,48.90
2023-03-21T16:16:02.898Z,49.19
2023-03-21T16:17:02.954Z,49.90
2023-03-21T16:18:02.965Z,49.40
2023-03-21T16:19:03.005Z,50.31
2023-03-21T16:20:03.114Z,50.41
2023-03-21T16:21:03.104Z,49.52
2023-03-21T16:22:03.197Z,48.82
2023-03-21T16:23:03.170Z,49.73
2023-03-21T16:24:03.233Z,48.71
2023-03-21T16:25:03.287Z,48.82
2023-03-21T16:26:03.335Z,49.02
2023-03-21T16:27:03.416Z,49.62
2023-03-21T16:28:03.478Z,48.71
2023-03-21T16:29:03.538Z,49.62
2023-03-21T16:30:03.586Z,49.52
2023-03-21T16:31:03.617Z,49.73
2023-03-21T16:32:03.708Z,49.62
2023-03-21T16:33:03.728Z,50.43
2023-03-21T16:34:03.756Z,49.85
2023-03-21T16:35:03.780Z,49.34
2023-03-21T16:36:03.880Z,49.14
2023-03-21T16:37:03.830Z,48.94
2023-03-21T16:38:03.868Z,49.16
2023-03-21T16:39:03.908Z,49.44
2023-03-21T16:40:03.984Z,49.27
2023-03-21T16:41:04.027Z,49.47
2023-03-21T16:42:04.028Z,49.57
2023-03-21T16:43:04.109Z,49.87
2023-03-21T16:44:04.145Z,50.38
2023-03-21T16:45:04.202Z,49.77
2023-03-21T16:46:04.315Z,51.12
2023-03-21T16:47:04.303Z,50.51
2023-03-21T16:48:04.433Z,50.81
2023-03-21T16:49:04.399Z,51.42
2023-03-21T16:50:04.467Z,51.21
2023-03-21T16:51:04.517Z,51.32
2023-03-21T16:52:04.557Z,52.03
2023-03-21T16:53:04.622Z,52.56
2023-03-21T16:54:04.702Z,53.27
2023-03-21T16:55:04.747Z,52.97
2023-03-21T16:56:04.798Z,53.37
2023-03-21T16:57:04.867Z,52.46
2023-03-21T16:58:04.890Z,52.97
2023-03-21T16:59:04.961Z,53.45
2023-03-21T17:00:05.009Z,54.18
2023-03-21T17:01:05.099Z,54.79
2023-03-21T17:02:05.131Z,55.10
2023-03-21T17:03:05.240Z,54.79
2023-03-21T17:04:05.201Z,53.91
2023-03-21T17:05:05.261Z,54.31
2023-03-21T17:06:05.322Z,53.27
2023-03-21T17:07:05.378Z,52.97
2023-03-21T17:08:05.415Z,53.47
2023-03-21T17:09:05.485Z,52.69
2023-03-21T17:10:05.462Z,53.30
2023-03-21T17:11:05.532Z,53.70
2023-03-21T17:12:05.580Z,53.70
2023-03-21T17:13:05.649Z,53.91
2023-03-21T17:14:05.723Z,54.31
2023-03-21T17:15:05.792Z,55.86
2023-03-21T17:16:05.842Z,56.98
2023-03-21T17:17:05.977Z,58.22
2023-03-21T17:18:06.006Z,59.21
2023-03-21T17:19:06.061Z,59.64
2023-03-21T17:20:06.110Z,60.46
2023-03-21T17:21:06.152Z,60.86
2023-03-21T17:22:06.217Z,61.57
2023-03-21T17:23:06.271Z,61.81
2023-03-21T17:24:06.322Z,62.11
2023-03-21T17:25:06.414Z,62.82
2023-03-21T17:26:06.373Z,62.45
2023-03-21T17:27:06.458Z,61.30
2023-03-21T17:28:06.495Z,58.56
2023-03-21T17:29:06.564Z,58.76
2023-03-21T17:30:06.686Z,58.96
2023-03-21T17:31:06.701Z,58.35
2023-03-21T17:32:06.732Z,59.06
2023-03-21T17:33:06.791Z,59.39
2023-03-21T17:34:06.871Z,58.78
2023-03-21T17:35:06.931Z,58.69
2023-03-21T17:36:06.981Z,58.89
2023-03-21T17:37:07.045Z,58.99
2023-03-21T17:38:07.092Z,59.09
2023-03-21T17:39:07.248Z,59.09
2023-03-21T17:40:07.191Z,58.89
2023-03-21T17:41:07.249Z,58.89
2023-03-21T17:42:07.220Z,58.69
2023-03-21T17:43:07.290Z,58.58
2023-03-21T17:44:07.414Z,58.89
2023-03-21T17:45:07.372Z,59.19
2023-03-21T17:46:07.436Z,58.99
2023-03-21T17:47:07.492Z,59.09
2023-03-21T17:48:07.580Z,59.19
2023-03-21T17:49:07.651Z,59.30
2023-03-21T17:50:07.719Z,59.50
2023-03-21T17:51:07.782Z,59.42
2023-03-21T17:52:07.840Z,61.05